Bear Mountain Bridge — 3FBQ5 — position and weather

sailwx.info

Track history (hours):
 
Tides and Currents Weather Stations Pressure Air Temp Water Temp Dewpoint Dewpoint Depression Visibility Wind Speed Wind Dir Waves Ship Positions

Bear Mountain Bridge

Last reported at 2017-Sep-21 09:58 UTC. Time now 2017-Sep-25 11:22 UTC.
Position N 38°12' W 124°14'.

Length 267 m; draft 12.2 m.

Type: Cargo ship. MMSI: 354942000.

Date/timePositionNaut miles runAvg speedWind from/ knotsBaromVisibWave heightAir tempDewpointWater temp
2017-Sep-21 09:58N 38°12' W 124°14'510.1
2017-Sep-21 09:31N 38°12' W 124°09'510.4
2017-Sep-21 09:00N 38°11' W 124°02'510.6
2017-Sep-21 08:31N 38°11' W 123°55'510.4
2017-Sep-21 08:01N 38°11' W 123°49'510.3
2017-Sep-21 07:31N 38°10' W 123°42'510.2
2017-Sep-21 07:01N 38°10' W 123°36'510.1
2017-Sep-21 06:30N 38°10' W 123°29'510.1
2017-Sep-21 06:00N 38°10' W 123°23'5 9.4
2017-Sep-21 05:31N 38°07' W 123°18'510.1
2017-Sep-21 05:00N 38°03' W 123°14'5 9.7
2017-Sep-21 04:31N 37°59' W 123°10'510.0
2017-Sep-21 04:01N 37°57' W 123°04'510.1
2017-Sep-21 03:31N 37°54' W 122°59'510.2
2017-Sep-21 03:01N 37°52' W 122°53'510.4
2017-Sep-21 02:31N 37°49' W 122°48'510.3
2017-Sep-21 02:01N 37°46' W 122°42'510.9
2017-Sep-21 01:30N 37°47' W 122°35'816.2
2017-Sep-21 01:00N 37°50' W 122°26'5 9.9
2017-Sep-21 00:30N 37°49' W 122°20'0 0.3
2017-Sep-21 00:00N 37°49' W 122°20'0 0.0
2017-Sep-20 23:28N 37°49' W 122°20'0 0.0
2017-Sep-20 22:58N 37°49' W 122°20'0 0.0
2017-Sep-20 22:28N 37°49' W 122°20'0 0.0
2017-Sep-20 21:58N 37°49' W 122°20'0 0.0
2017-Sep-20 21:29N 37°49' W 122°20'0 0.0
2017-Sep-20 20:58N 37°49' W 122°20'0 0.0
2017-Sep-20 20:28N 37°49' W 122°20'0 0.0
2017-Sep-20 19:58N 37°49' W 122°20'0 0.0
2017-Sep-20 19:28N 37°49' W 122°20'0 0.0
2017-Sep-20 18:58N 37°49' W 122°20'0 0.0
2017-Sep-20 18:28N 37°49' W 122°20'0 0.0
2017-Sep-20 17:58N 37°49' W 122°20'0 0.0
2017-Sep-20 17:28N 37°49' W 122°20'0 0.0
2017-Sep-20 16:58N 37°49' W 122°20'0 0.0
2017-Sep-20 16:28N 37°49' W 122°20'0 0.0
2017-Sep-20 15:58N 37°49' W 122°20'0 0.0
2017-Sep-20 15:28N 37°49' W 122°20'0 0.0
2017-Sep-20 14:58N 37°49' W 122°20'0 0.0
2017-Sep-20 13:58N 37°49' W 122°20'0 0.0
2017-Sep-20 13:28N 37°49' W 122°20'0 0.2
2017-Sep-20 13:00N 37°49' W 122°20'4 7.0
2017-Sep-20 12:31N 37°49' W 122°24'611.8
2017-Sep-20 12:00N 37°48' W 122°32'715.0
2017-Sep-20 11:31N 37°45' W 122°40'3 6.1
2017-Sep-20 11:00N 37°43' W 122°43'3 6.1
2017-Sep-20 10:30N 37°41' W 122°46'4 7.5
2017-Sep-20 10:00N 37°39' W 122°50'4 7.7
2017-Sep-20 09:31N 37°37' W 122°54'4 8.2
2017-Sep-20 09:01N 37°34' W 122°59'4 8.3
2017-Sep-20 08:31N 37°32' W 123°02'4 8.2
2017-Sep-20 08:00N 37°28' W 123°04'4 8.1
2017-Sep-20 07:30N 37°24' W 123°04'4 8.4
2017-Sep-20 07:00N 37°20' W 123°04'4 8.9
2017-Sep-20 06:30N 37°15' W 123°04'5 9.2
2017-Sep-20 06:00N 37°11' W 123°04'5 9.0
2017-Sep-20 05:30N 37°06' W 123°04'4 8.9
2017-Sep-20 05:00N 37°02' W 123°04'4 8.8
2017-Sep-20 04:30N 36°57' W 123°04'5 8.6
2017-Sep-20 03:56N 36°52' W 123°04'4 8.3
2017-Sep-20 03:30N 36°49' W 123°03'4 8.3
2017-Sep-20 03:00N 36°45' W 123°03'5 8.5
2017-Sep-20 02:27N 36°40' W 123°03'4 8.3
2017-Sep-20 01:58N 36°36' W 123°04'20 0.7
2017-Sep-18 23:46N 36°53' W 123°15'0 1.1
2017-Sep-18 23:22N 36°54' W 123°15'1 1.4
2017-Sep-18 22:58N 36°54' W 123°16'1 1.3
2017-Sep-18 22:23N 36°55' W 123°15'10510.1
2017-Sep-18 11:59N 35°30' W 121°58'510.7
2017-Sep-18 11:30N 35°25' W 121°56'510.6
2017-Sep-18 11:00N 35°21' W 121°53'510.5
2017-Sep-18 10:30N 35°16' W 121°50'510.6
2017-Sep-18 10:00N 35°11' W 121°47'510.6
2017-Sep-18 09:30N 35°06' W 121°45'510.7
2017-Sep-18 09:00N 35°01' W 121°42'510.6
2017-Sep-18 08:30N 34°57' W 121°39'610.4
2017-Sep-18 07:58N 34°52' W 121°36'510.5
2017-Sep-18 07:30N 34°47' W 121°33'510.3
2017-Sep-18 07:00N 34°43' W 121°31'510.4
2017-Sep-18 06:30N 34°38' W 121°28'610.8
2017-Sep-18 05:57N 34°33' W 121°25'510.9
2017-Sep-18 05:30N 34°28' W 121°22'610.9
2017-Sep-18 04:58N 34°23' W 121°19'510.7
2017-Sep-18 04:30N 34°18' W 121°17'510.4
2017-Sep-18 04:00N 34°14' W 121°14'610.5
2017-Sep-18 03:28N 34°09' W 121°11'510.1
2017-Sep-18 03:00N 34°05' W 121°08'510.6
2017-Sep-18 02:30N 34°02' W 121°02'510.4
2017-Sep-18 02:00N 34°00' W 120°57'510.5
2017-Sep-18 01:30N 33°58' W 120°51'510.7
2017-Sep-18 01:00N 33°56' W 120°45'510.7
2017-Sep-18 00:30N 33°53' W 120°39'510.6
2017-Sep-18 00:00N 33°51' W 120°34'510.7
2017-Sep-17 23:30N 33°49' W 120°28'611.1
2017-Sep-17 23:00N 33°46' W 120°22'611.3
2017-Sep-17 22:30N 33°44' W 120°16'610.9
2017-Sep-17 22:00N 33°42' W 120°09'510.6
2017-Sep-17 21:30N 33°42' W 120°03'610.8
2017-Sep-17 21:00N 33°42' W 119°56'511.1
2017-Sep-17 20:30N 33°41' W 119°50'511.0
2017-Sep-17 20:00N 33°41' W 119°43'611.5
2017-Sep-17 19:29N 33°41' W 119°36'511.3
2017-Sep-17 19:00N 33°41' W 119°29'611.0
2017-Sep-17 18:27N 33°41' W 119°22'511.0
2017-Sep-17 18:00N 33°40' W 119°16'611.1
2017-Sep-17 17:29N 33°40' W 119°09'510.5
2017-Sep-17 17:00N 33°40' W 119°03'510.2
2017-Sep-17 16:30N 33°40' W 118°57'510.3
2017-Sep-17 16:00N 33°40' W 118°51'510.2
2017-Sep-17 15:30N 33°39' W 118°45'510.4
2017-Sep-17 15:00N 33°39' W 118°39'510.2
2017-Sep-17 14:30N 33°39' W 118°33'510.3
2017-Sep-17 14:00N 33°39' W 118°26'510.2
2017-Sep-17 13:30N 33°38' W 118°20'6 9.9
2017-Sep-17 12:56N 33°39' W 118°13'4 9.8
2017-Sep-17 12:30N 33°42' W 118°11'2 4.0
2017-Sep-17 11:56N 33°45' W 118°12'0 0.1
2017-Sep-17 10:32N 33°45' W 118°12'0 0.0
2017-Sep-17 10:26N 33°45' W 118°12'0 0.0
2017-Sep-17 09:41N 33°45' W 118°12'0 0.0
2017-Sep-17 09:11N 33°45' W 118°12'0 0.0
2017-Sep-17 08:56N 33°45' W 118°12'0 0.0
2017-Sep-17 08:20N 33°45' W 118°12'0 0.0
2017-Sep-17 07:50N 33°45' W 118°12'0 0.0
2017-Sep-17 07:20N 33°45' W 118°12'0 0.0
2017-Sep-17 06:08N 33°45' W 118°12'0 0.2
2017-Sep-17 05:56N 33°45' W 118°12'0 0.0
2017-Sep-17 04:44N 33°45' W 118°12'0 0.0
2017-Sep-17 04:29N 33°45' W 118°12'0 0.0
2017-Sep-17 01:41N 33°45' W 118°12'0 0.0
2017-Sep-17 00:56N 33°45' W 118°12'0 0.0
2017-Sep-16 22:59N 33°45' W 118°12'0 0.1
2017-Sep-16 22:11N 33°45' W 118°12'0 0.0
2017-Sep-16 21:59N 33°45' W 118°12'0 0.0
2017-Sep-16 21:23N 33°45' W 118°12'0 0.0
2017-Sep-16 20:53N 33°45' W 118°12'0 0.1
2017-Sep-16 20:29N 33°45' W 118°12'0 0.0
2017-Sep-16 19:53N 33°45' W 118°12'0 0.0
2017-Sep-16 19:23N 33°45' W 118°12'0 0.0
2017-Sep-16 18:59N 33°45' W 118°12'0 0.0
2017-Sep-16 18:29N 33°45' W 118°12'0 0.0
2017-Sep-16 17:59N 33°45' W 118°12'0 0.0
2017-Sep-16 15:26N 33°45' W 118°12'0 0.1
2017-Sep-16 14:59N 33°45' W 118°12'0 0.1
2017-Sep-16 14:26N 33°45' W 118°12'0 0.1
2017-Sep-16 13:53N 33°45' W 118°12'0 0.1
2017-Sep-16 13:14N 33°45' W 118°12'0 0.0
2017-Sep-16 12:56N 33°45' W 118°12'0 0.1
2017-Sep-16 12:26N 33°45' W 118°12'0 0.1
2017-Sep-16 11:56N 33°45' W 118°12'0 0.1
2017-Sep-16 11:29N 33°45' W 118°12'0 0.0
2017-Sep-16 10:56N 33°45' W 118°12'0 0.0
2017-Sep-16 10:29N 33°45' W 118°12'0 0.0
2017-Sep-16 09:50N 33°45' W 118°12'0 0.0
2017-Sep-16 09:26N 33°45' W 118°12'0 0.0
2017-Sep-16 08:59N 33°45' W 118°12'0 0.0
2017-Sep-16 08:23N 33°45' W 118°12'0 0.0
2017-Sep-16 07:50N 33°45' W 118°12'0 0.0
2017-Sep-16 07:14N 33°45' W 118°12'0 0.2
2017-Sep-16 06:59N 33°45' W 118°12'0 0.0
2017-Sep-16 06:26N 33°45' W 118°12'0 0.1
2017-Sep-16 05:59N 33°45' W 118°12'0 0.0
2017-Sep-16 05:17N 33°45' W 118°12'0 0.0
2017-Sep-16 04:47N 33°45' W 118°12'0 0.0
2017-Sep-16 04:29N 33°45' W 118°12'0 0.0
2017-Sep-16 03:47N 33°45' W 118°12'0 0.1
2017-Sep-16 03:08N 33°45' W 118°12'0 0.3
2017-Sep-16 02:56N 33°45' W 118°12'0 0.0
2017-Sep-16 02:29N 33°45' W 118°12'0 0.0
2017-Sep-16 01:53N 33°45' W 118°12'0 0.1
2017-Sep-16 01:29N 33°45' W 118°12'0 0.1
2017-Sep-16 00:59N 33°45' W 118°12'0 0.0
2017-Sep-16 00:29N 33°45' W 118°12'0 0.1
2017-Sep-15 23:53N 33°45' W 118°12'0 0.0
2017-Sep-15 23:26N 33°45' W 118°12'0 0.1
2017-Sep-15 22:59N 33°45' W 118°12'0 0.0
2017-Sep-15 22:29N 33°45' W 118°12'0 0.0
2017-Sep-15 21:53N 33°45' W 118°12'0 0.0
2017-Sep-15 21:26N 33°45' W 118°12'0 0.0
2017-Sep-15 20:56N 33°45' W 118°12'0 0.1
2017-Sep-15 20:29N 33°45' W 118°12'0 0.0
2017-Sep-15 19:02N 33°45' W 118°12'0 0.1
2017-Sep-15 18:38N 33°45' W 118°12'0 0.0
2017-Sep-15 18:29N 33°45' W 118°12'0 0.0
2017-Sep-15 17:56N 33°45' W 118°12'0 0.0
2017-Sep-15 15:05N 33°45' W 118°12'0 0.0
2017-Sep-15 14:35N 33°45' W 118°12'0 0.0
2017-Sep-15 14:11N 33°45' W 118°12'0 0.0
2017-Sep-15 12:38N 33°45' W 118°12'0 0.3
2017-Sep-15 12:29N 33°45' W 118°12'0 0.1
2017-Sep-15 11:59N 33°45' W 118°12'0 0.0
2017-Sep-15 11:26N 33°45' W 118°12'0 0.0
2017-Sep-15 09:23N 33°45' W 118°12'0 0.0
2017-Sep-15 08:59N 33°45' W 118°12'0 0.0
2017-Sep-15 08:29N 33°45' W 118°12'0 0.0
2017-Sep-15 07:59N 33°45' W 118°12'0 0.0
2017-Sep-15 07:29N 33°45' W 118°12'0 0.1
2017-Sep-15 06:56N 33°45' W 118°12'0 0.0
2017-Sep-15 06:29N 33°45' W 118°12'0 0.1
2017-Sep-15 05:53N 33°45' W 118°12'0 0.0
2017-Sep-15 05:23N 33°45' W 118°12'0 0.0
2017-Sep-15 04:05N 33°45' W 118°12'0 0.0
2017-Sep-15 03:59N 33°45' W 118°12'0 0.0
2017-Sep-15 03:29N 33°45' W 118°12'0 0.0
2017-Sep-15 02:59N 33°45' W 118°12'0 0.0
2017-Sep-15 02:26N 33°45' W 118°12'0 0.0
2017-Sep-15 01:53N 33°45' W 118°12'0 0.0
2017-Sep-15 01:26N 33°45' W 118°12'0 0.0
2017-Sep-15 00:56N 33°45' W 118°12'0 0.0
2017-Sep-15 00:23N 33°45' W 118°12'0 0.0
2017-Sep-14 23:56N 33°45' W 118°12'0 0.1
2017-Sep-14 23:23N 33°45' W 118°12'0 0.1
2017-Sep-14 22:53N 33°45' W 118°12'0 0.1
2017-Sep-14 22:29N 33°45' W 118°12'0 0.0
2017-Sep-14 21:59N 33°45' W 118°12'0 0.0
2017-Sep-14 21:29N 33°45' W 118°12'0 0.0
2017-Sep-14 20:56N 33°45' W 118°12'0 0.0
2017-Sep-14 20:26N 33°45' W 118°12'0 0.0
2017-Sep-14 19:35N 33°45' W 118°12'0 0.2
2017-Sep-14 19:23N 33°45' W 118°12'0 0.1
2017-Sep-14 18:52N 33°45' W 118°12'0 0.0
2017-Sep-14 18:29N 33°45' W 118°12'0 0.0
2017-Sep-14 17:59N 33°45' W 118°12'0 0.0
2017-Sep-14 17:23N 33°45' W 118°12'0 0.1
2017-Sep-14 16:40N 33°45' W 118°12'0 0.0
2017-Sep-14 16:14N 33°45' W 118°12'0 0.2
2017-Sep-14 15:59N 33°45' W 118°12'0 0.1
2017-Sep-14 15:08N 33°45' W 118°12'0 0.0
2017-Sep-14 14:53N 33°45' W 118°12'0 0.0
2017-Sep-14 13:32N 33°45' W 118°12'0 1.0
2017-Sep-14 13:29N 33°45' W 118°12'0 0.0
2017-Sep-14 12:50N 33°45' W 118°12'0 0.1
2017-Sep-14 12:20N 33°45' W 118°12'0 0.0
2017-Sep-14 11:59N 33°45' W 118°12'0 0.1
2017-Sep-14 11:26N 33°45' W 118°12'0 0.1
2017-Sep-14 10:44N 33°45' W 118°12'0 0.1
2017-Sep-14 09:50N 33°45' W 118°12'0 0.1
2017-Sep-14 09:29N 33°45' W 118°12'0 0.1
2017-Sep-14 08:56N 33°45' W 118°12'0 0.1
2017-Sep-14 08:23N 33°45' W 118°12'0 0.1
2017-Sep-14 07:56N 33°45' W 118°12'0 0.0
2017-Sep-14 07:28N 33°45' W 118°12'0 0.0
2017-Sep-14 06:20N 33°45' W 118°12'0 0.0
2017-Sep-14 05:46N 33°45' W 118°12'0 0.0
2017-Sep-14 05:28N 33°45' W 118°12'0 0.0
2017-Sep-14 04:58N 33°45' W 118°12'0 0.1
2017-Sep-14 04:28N 33°45' W 118°12'0 0.1
2017-Sep-14 03:58N 33°45' W 118°12'0 0.1
2017-Sep-14 03:22N 33°45' W 118°12'0 0.1
2017-Sep-14 02:52N 33°45' W 118°12'0 0.0
2017-Sep-14 02:28N 33°45' W 118°12'0 0.1
2017-Sep-14 01:58N 33°45' W 118°12'0 0.1
2017-Sep-14 01:28N 33°45' W 118°12'0 0.0
2017-Sep-14 00:58N 33°45' W 118°12'0 0.0
2017-Sep-14 00:28N 33°45' W 118°12'0 0.0
2017-Sep-13 23:59N 33°45' W 118°12'0 0.1
2017-Sep-13 23:28N 33°45' W 118°12'0 0.0
2017-Sep-13 22:58N 33°45' W 118°12'0 0.1
2017-Sep-13 22:28N 33°45' W 118°12'0 0.1
2017-Sep-13 21:58N 33°45' W 118°12'0 0.4
2017-Sep-13 21:30N 33°45' W 118°12'3 5.3
2017-Sep-13 21:00N 33°42' W 118°11'3 6.5
2017-Sep-13 20:31N 33°39' W 118°11'3 6.4
2017-Sep-13 20:00N 33°36' W 118°13'5 9.7
2017-Sep-13 19:30N 33°36' W 118°19'5 9.2
2017-Sep-13 19:00N 33°36' W 118°24'510.2
2017-Sep-13 18:30N 33°37' W 118°30'510.0
2017-Sep-13 18:00N 33°37' W 118°36'5 9.8
2017-Sep-13 17:30N 33°37' W 118°42'5 9.9
2017-Sep-13 17:01N 33°38' W 118°48'610.0
2017-Sep-13 16:26N 33°38' W 118°55'4 9.9
2017-Sep-13 16:00N 33°38' W 119°00'510.1
2017-Sep-13 15:31N 33°38' W 119°06'510.3
2017-Sep-13 15:01N 33°38' W 119°12'510.5
2017-Sep-13 14:31N 33°38' W 119°19'510.6
2017-Sep-13 14:01N 33°38' W 119°25'510.7
2017-Sep-13 13:30N 33°38' W 119°32'510.7
2017-Sep-13 13:00N 33°38' W 119°38'510.5
2017-Sep-13 12:30N 33°38' W 119°44'510.4
2017-Sep-13 12:00N 33°38' W 119°50'610.7
2017-Sep-13 11:29N 33°38' W 119°57'510.9
2017-Sep-13 11:00N 33°38' W 120°03'510.9
2017-Sep-13 10:31N 33°38' W 120°10'611.0
2017-Sep-13 10:00N 33°38' W 120°17'611.4
2017-Sep-13 09:30N 33°40' W 120°23'611.2
2017-Sep-13 09:00N 33°41' W 120°30'611.1
2017-Sep-13 08:31N 33°42' W 120°36'611.3
2017-Sep-13 08:00N 33°43' W 120°43'611.4
2017-Sep-13 07:31N 33°44' W 120°50'611.1
2017-Sep-13 07:00N 33°45' W 120°56'511.0
2017-Sep-13 06:31N 33°46' W 121°03'611.3
2017-Sep-13 06:00N 33°47' W 121°09'611.2
2017-Sep-13 05:31N 33°48' W 121°16'610.9
2017-Sep-13 04:59N 33°49' W 121°23'510.8
2017-Sep-13 04:31N 33°50' W 121°29'510.8
2017-Sep-13 04:01N 33°51' W 121°35'511.0
2017-Sep-13 03:31N 33°52' W 121°42'510.8
2017-Sep-13 03:00N 33°54' W 121°48'511.0
2017-Sep-13 02:31N 33°55' W 121°54'610.7
2017-Sep-13 02:00N 33°56' W 122°01'711.0
2017-Sep-13 01:22N 33°57' W 122°09'28813.9
2017-Sep-12 04:38N 35°29' W 127°41'520.4
2017-Sep-12 04:22N 35°31' W 127°47'  
Track history (hours):
 
Tides and Currents Weather Stations Pressure Air Temp Water Temp Dewpoint Dewpoint Depression Visibility Wind Speed Wind Dir Waves Ship Positions

Bear Mountain Bridge

Last reported at 2017-Sep-21 09:58 UTC. Time now 2017-Sep-25 11:22 UTC.
Position N 38°12' W 124°14'.

Length 267 m; draft 12.2 m.

Type: Cargo ship. MMSI: 354942000.

Date/timePositionNaut miles runAvg speedWind from/ knotsBaromVisibWave heightAir tempDewpointWater temp
2017-Sep-21 09:58N 38°12' W 124°14'510.1
2017-Sep-21 09:31N 38°12' W 124°09'510.4
2017-Sep-21 09:00N 38°11' W 124°02'510.6
2017-Sep-21 08:31N 38°11' W 123°55'510.4
2017-Sep-21 08:01N 38°11' W 123°49'510.3
2017-Sep-21 07:31N 38°10' W 123°42'510.2
2017-Sep-21 07:01N 38°10' W 123°36'510.1
2017-Sep-21 06:30N 38°10' W 123°29'510.1
2017-Sep-21 06:00N 38°10' W 123°23'5 9.4
2017-Sep-21 05:31N 38°07' W 123°18'510.1
2017-Sep-21 05:00N 38°03' W 123°14'5 9.7
2017-Sep-21 04:31N 37°59' W 123°10'510.0
2017-Sep-21 04:01N 37°57' W 123°04'510.1
2017-Sep-21 03:31N 37°54' W 122°59'510.2
2017-Sep-21 03:01N 37°52' W 122°53'510.4
2017-Sep-21 02:31N 37°49' W 122°48'510.3
2017-Sep-21 02:01N 37°46' W 122°42'510.9
2017-Sep-21 01:30N 37°47' W 122°35'816.2
2017-Sep-21 01:00N 37°50' W 122°26'5 9.9
2017-Sep-21 00:30N 37°49' W 122°20'0 0.3
2017-Sep-21 00:00N 37°49' W 122°20'0 0.0
2017-Sep-20 23:28N 37°49' W 122°20'0 0.0
2017-Sep-20 22:58N 37°49' W 122°20'0 0.0
2017-Sep-20 22:28N 37°49' W 122°20'0 0.0
2017-Sep-20 21:58N 37°49' W 122°20'0 0.0
2017-Sep-20 21:29N 37°49' W 122°20'0 0.0
2017-Sep-20 20:58N 37°49' W 122°20'0 0.0
2017-Sep-20 20:28N 37°49' W 122°20'0 0.0
2017-Sep-20 19:58N 37°49' W 122°20'0 0.0
2017-Sep-20 19:28N 37°49' W 122°20'0 0.0
2017-Sep-20 18:58N 37°49' W 122°20'0 0.0
2017-Sep-20 18:28N 37°49' W 122°20'0 0.0
2017-Sep-20 17:58N 37°49' W 122°20'0 0.0
2017-Sep-20 17:28N 37°49' W 122°20'0 0.0
2017-Sep-20 16:58N 37°49' W 122°20'0 0.0
2017-Sep-20 16:28N 37°49' W 122°20'0 0.0
2017-Sep-20 15:58N 37°49' W 122°20'0 0.0
2017-Sep-20 15:28N 37°49' W 122°20'0 0.0
2017-Sep-20 14:58N 37°49' W 122°20'0 0.0
2017-Sep-20 13:58N 37°49' W 122°20'0 0.0
2017-Sep-20 13:28N 37°49' W 122°20'0 0.2
2017-Sep-20 13:00N 37°49' W 122°20'4 7.0
2017-Sep-20 12:31N 37°49' W 122°24'611.8
2017-Sep-20 12:00N 37°48' W 122°32'715.0
2017-Sep-20 11:31N 37°45' W 122°40'3 6.1
2017-Sep-20 11:00N 37°43' W 122°43'3 6.1
2017-Sep-20 10:30N 37°41' W 122°46'4 7.5
2017-Sep-20 10:00N 37°39' W 122°50'4 7.7
2017-Sep-20 09:31N 37°37' W 122°54'4 8.2
2017-Sep-20 09:01N 37°34' W 122°59'4 8.3
2017-Sep-20 08:31N 37°32' W 123°02'4 8.2
2017-Sep-20 08:00N 37°28' W 123°04'4 8.1
2017-Sep-20 07:30N 37°24' W 123°04'4 8.4
2017-Sep-20 07:00N 37°20' W 123°04'4 8.9
2017-Sep-20 06:30N 37°15' W 123°04'5 9.2
2017-Sep-20 06:00N 37°11' W 123°04'5 9.0
2017-Sep-20 05:30N 37°06' W 123°04'4 8.9
2017-Sep-20 05:00N 37°02' W 123°04'4 8.8
2017-Sep-20 04:30N 36°57' W 123°04'5 8.6
2017-Sep-20 03:56N 36°52' W 123°04'4 8.3
2017-Sep-20 03:30N 36°49' W 123°03'4 8.3
2017-Sep-20 03:00N 36°45' W 123°03'5 8.5
2017-Sep-20 02:27N 36°40' W 123°03'4 8.3
2017-Sep-20 01:58N 36°36' W 123°04'20 0.7
2017-Sep-18 23:46N 36°53' W 123°15'0 1.1
2017-Sep-18 23:22N 36°54' W 123°15'1 1.4
2017-Sep-18 22:58N 36°54' W 123°16'1 1.3
2017-Sep-18 22:23N 36°55' W 123°15'10510.1
2017-Sep-18 11:59N 35°30' W 121°58'510.7
2017-Sep-18 11:30N 35°25' W 121°56'510.6
2017-Sep-18 11:00N 35°21' W 121°53'510.5
2017-Sep-18 10:30N 35°16' W 121°50'510.6
2017-Sep-18 10:00N 35°11' W 121°47'510.6
2017-Sep-18 09:30N 35°06' W 121°45'510.7
2017-Sep-18 09:00N 35°01' W 121°42'510.6
2017-Sep-18 08:30N 34°57' W 121°39'610.4
2017-Sep-18 07:58N 34°52' W 121°36'510.5
2017-Sep-18 07:30N 34°47' W 121°33'510.3
2017-Sep-18 07:00N 34°43' W 121°31'510.4
2017-Sep-18 06:30N 34°38' W 121°28'610.8
2017-Sep-18 05:57N 34°33' W 121°25'510.9
2017-Sep-18 05:30N 34°28' W 121°22'610.9
2017-Sep-18 04:58N 34°23' W 121°19'510.7
2017-Sep-18 04:30N 34°18' W 121°17'510.4
2017-Sep-18 04:00N 34°14' W 121°14'610.5
2017-Sep-18 03:28N 34°09' W 121°11'510.1
2017-Sep-18 03:00N 34°05' W 121°08'510.6
2017-Sep-18 02:30N 34°02' W 121°02'510.4
2017-Sep-18 02:00N 34°00' W 120°57'510.5
2017-Sep-18 01:30N 33°58' W 120°51'510.7
2017-Sep-18 01:00N 33°56' W 120°45'510.7
2017-Sep-18 00:30N 33°53' W 120°39'510.6
2017-Sep-18 00:00N 33°51' W 120°34'510.7
2017-Sep-17 23:30N 33°49' W 120°28'611.1
2017-Sep-17 23:00N 33°46' W 120°22'611.3
2017-Sep-17 22:30N 33°44' W 120°16'610.9
2017-Sep-17 22:00N 33°42' W 120°09'510.6
2017-Sep-17 21:30N 33°42' W 120°03'610.8
2017-Sep-17 21:00N 33°42' W 119°56'511.1
2017-Sep-17 20:30N 33°41' W 119°50'511.0
2017-Sep-17 20:00N 33°41' W 119°43'611.5
2017-Sep-17 19:29N 33°41' W 119°36'511.3
2017-Sep-17 19:00N 33°41' W 119°29'611.0
2017-Sep-17 18:27N 33°41' W 119°22'511.0
2017-Sep-17 18:00N 33°40' W 119°16'611.1
2017-Sep-17 17:29N 33°40' W 119°09'510.5
2017-Sep-17 17:00N 33°40' W 119°03'510.2
2017-Sep-17 16:30N 33°40' W 118°57'510.3
2017-Sep-17 16:00N 33°40' W 118°51'510.2
2017-Sep-17 15:30N 33°39' W 118°45'510.4
2017-Sep-17 15:00N 33°39' W 118°39'510.2
2017-Sep-17 14:30N 33°39' W 118°33'510.3
2017-Sep-17 14:00N 33°39' W 118°26'510.2
2017-Sep-17 13:30N 33°38' W 118°20'6 9.9
2017-Sep-17 12:56N 33°39' W 118°13'4 9.8
2017-Sep-17 12:30N 33°42' W 118°11'2 4.0
2017-Sep-17 11:56N 33°45' W 118°12'0 0.1
2017-Sep-17 10:32N 33°45' W 118°12'0 0.0
2017-Sep-17 10:26N 33°45' W 118°12'0 0.0
2017-Sep-17 09:41N 33°45' W 118°12'0 0.0
2017-Sep-17 09:11N 33°45' W 118°12'0 0.0
2017-Sep-17 08:56N 33°45' W 118°12'0 0.0
2017-Sep-17 08:20N 33°45' W 118°12'0 0.0
2017-Sep-17 07:50N 33°45' W 118°12'0 0.0
2017-Sep-17 07:20N 33°45' W 118°12'0 0.0
2017-Sep-17 06:08N 33°45' W 118°12'0 0.2
2017-Sep-17 05:56N 33°45' W 118°12'0 0.0
2017-Sep-17 04:44N 33°45' W 118°12'0 0.0
2017-Sep-17 04:29N 33°45' W 118°12'0 0.0
2017-Sep-17 01:41N 33°45' W 118°12'0 0.0
2017-Sep-17 00:56N 33°45' W 118°12'0 0.0
2017-Sep-16 22:59N 33°45' W 118°12'0 0.1
2017-Sep-16 22:11N 33°45' W 118°12'0 0.0
2017-Sep-16 21:59N 33°45' W 118°12'0 0.0
2017-Sep-16 21:23N 33°45' W 118°12'0 0.0
2017-Sep-16 20:53N 33°45' W 118°12'0 0.1
2017-Sep-16 20:29N 33°45' W 118°12'0 0.0
2017-Sep-16 19:53N 33°45' W 118°12'0 0.0
2017-Sep-16 19:23N 33°45' W 118°12'0 0.0
2017-Sep-16 18:59N 33°45' W 118°12'0 0.0
2017-Sep-16 18:29N 33°45' W 118°12'0 0.0
2017-Sep-16 17:59N 33°45' W 118°12'0 0.0
2017-Sep-16 15:26N 33°45' W 118°12'0 0.1
2017-Sep-16 14:59N 33°45' W 118°12'0 0.1
2017-Sep-16 14:26N 33°45' W 118°12'0 0.1
2017-Sep-16 13:53N 33°45' W 118°12'0 0.1
2017-Sep-16 13:14N 33°45' W 118°12'0 0.0
2017-Sep-16 12:56N 33°45' W 118°12'0 0.1
2017-Sep-16 12:26N 33°45' W 118°12'0 0.1
2017-Sep-16 11:56N 33°45' W 118°12'0 0.1
2017-Sep-16 11:29N 33°45' W 118°12'0 0.0
2017-Sep-16 10:56N 33°45' W 118°12'0 0.0
2017-Sep-16 10:29N 33°45' W 118°12'0 0.0
2017-Sep-16 09:50N 33°45' W 118°12'0 0.0
2017-Sep-16 09:26N 33°45' W 118°12'0 0.0
2017-Sep-16 08:59N 33°45' W 118°12'0 0.0
2017-Sep-16 08:23N 33°45' W 118°12'0 0.0
2017-Sep-16 07:50N 33°45' W 118°12'0 0.0
2017-Sep-16 07:14N 33°45' W 118°12'0 0.2
2017-Sep-16 06:59N 33°45' W 118°12'0 0.0
2017-Sep-16 06:26N 33°45' W 118°12'0 0.1
2017-Sep-16 05:59N 33°45' W 118°12'0 0.0
2017-Sep-16 05:17N 33°45' W 118°12'0 0.0
2017-Sep-16 04:47N 33°45' W 118°12'0 0.0
2017-Sep-16 04:29N 33°45' W 118°12'0 0.0
2017-Sep-16 03:47N 33°45' W 118°12'0 0.1
2017-Sep-16 03:08N 33°45' W 118°12'0 0.3
2017-Sep-16 02:56N 33°45' W 118°12'0 0.0
2017-Sep-16 02:29N 33°45' W 118°12'0 0.0
2017-Sep-16 01:53N 33°45' W 118°12'0 0.1
2017-Sep-16 01:29N 33°45' W 118°12'0 0.1
2017-Sep-16 00:59N 33°45' W 118°12'0 0.0
2017-Sep-16 00:29N 33°45' W 118°12'0 0.1
2017-Sep-15 23:53N 33°45' W 118°12'0 0.0
2017-Sep-15 23:26N 33°45' W 118°12'0 0.1
2017-Sep-15 22:59N 33°45' W 118°12'0 0.0
2017-Sep-15 22:29N 33°45' W 118°12'0 0.0
2017-Sep-15 21:53N 33°45' W 118°12'0 0.0
2017-Sep-15 21:26N 33°45' W 118°12'0 0.0
2017-Sep-15 20:56N 33°45' W 118°12'0 0.1
2017-Sep-15 20:29N 33°45' W 118°12'0 0.0
2017-Sep-15 19:02N 33°45' W 118°12'0 0.1
2017-Sep-15 18:38N 33°45' W 118°12'0 0.0
2017-Sep-15 18:29N 33°45' W 118°12'0 0.0
2017-Sep-15 17:56N 33°45' W 118°12'0 0.0
2017-Sep-15 15:05N 33°45' W 118°12'0 0.0
2017-Sep-15 14:35N 33°45' W 118°12'0 0.0
2017-Sep-15 14:11N 33°45' W 118°12'0 0.0
2017-Sep-15 12:38N 33°45' W 118°12'0 0.3
2017-Sep-15 12:29N 33°45' W 118°12'0 0.1
2017-Sep-15 11:59N 33°45' W 118°12'0 0.0
2017-Sep-15 11:26N 33°45' W 118°12'0 0.0
2017-Sep-15 09:23N 33°45' W 118°12'0 0.0
2017-Sep-15 08:59N 33°45' W 118°12'0 0.0
2017-Sep-15 08:29N 33°45' W 118°12'0 0.0
2017-Sep-15 07:59N 33°45' W 118°12'0 0.0
2017-Sep-15 07:29N 33°45' W 118°12'0 0.1
2017-Sep-15 06:56N 33°45' W 118°12'0 0.0
2017-Sep-15 06:29N 33°45' W 118°12'0 0.1
2017-Sep-15 05:53N 33°45' W 118°12'0 0.0
2017-Sep-15 05:23N 33°45' W 118°12'0 0.0
2017-Sep-15 04:05N 33°45' W 118°12'0 0.0
2017-Sep-15 03:59N 33°45' W 118°12'0 0.0
2017-Sep-15 03:29N 33°45' W 118°12'0 0.0
2017-Sep-15 02:59N 33°45' W 118°12'0 0.0
2017-Sep-15 02:26N 33°45' W 118°12'0 0.0
2017-Sep-15 01:53N 33°45' W 118°12'0 0.0
2017-Sep-15 01:26N 33°45' W 118°12'0 0.0
2017-Sep-15 00:56N 33°45' W 118°12'0 0.0
2017-Sep-15 00:23N 33°45' W 118°12'0 0.0
2017-Sep-14 23:56N 33°45' W 118°12'0 0.1
2017-Sep-14 23:23N 33°45' W 118°12'0 0.1
2017-Sep-14 22:53N 33°45' W 118°12'0 0.1
2017-Sep-14 22:29N 33°45' W 118°12'0 0.0
2017-Sep-14 21:59N 33°45' W 118°12'0 0.0
2017-Sep-14 21:29N 33°45' W 118°12'0 0.0
2017-Sep-14 20:56N 33°45' W 118°12'0 0.0
2017-Sep-14 20:26N 33°45' W 118°12'0 0.0
2017-Sep-14 19:35N 33°45' W 118°12'0 0.2
2017-Sep-14 19:23N 33°45' W 118°12'0 0.1
2017-Sep-14 18:52N 33°45' W 118°12'0 0.0
2017-Sep-14 18:29N 33°45' W 118°12'0 0.0
2017-Sep-14 17:59N 33°45' W 118°12'0 0.0
2017-Sep-14 17:23N 33°45' W 118°12'0 0.1
2017-Sep-14 16:40N 33°45' W 118°12'0 0.0
2017-Sep-14 16:14N 33°45' W 118°12'0 0.2
2017-Sep-14 15:59N 33°45' W 118°12'0 0.1
2017-Sep-14 15:08N 33°45' W 118°12'0 0.0
2017-Sep-14 14:53N 33°45' W 118°12'0 0.0
2017-Sep-14 13:32N 33°45' W 118°12'0 1.0
2017-Sep-14 13:29N 33°45' W 118°12'0 0.0
2017-Sep-14 12:50N 33°45' W 118°12'0 0.1
2017-Sep-14 12:20N 33°45' W 118°12'0 0.0
2017-Sep-14 11:59N 33°45' W 118°12'0 0.1
2017-Sep-14 11:26N 33°45' W 118°12'0 0.1
2017-Sep-14 10:44N 33°45' W 118°12'0 0.1
2017-Sep-14 09:50N 33°45' W 118°12'0 0.1
2017-Sep-14 09:29N 33°45' W 118°12'0 0.1
2017-Sep-14 08:56N 33°45' W 118°12'0 0.1
2017-Sep-14 08:23N 33°45' W 118°12'0 0.1
2017-Sep-14 07:56N 33°45' W 118°12'0 0.0
2017-Sep-14 07:28N 33°45' W 118°12'0 0.0
2017-Sep-14 06:20N 33°45' W 118°12'0 0.0
2017-Sep-14 05:46N 33°45' W 118°12'0 0.0
2017-Sep-14 05:28N 33°45' W 118°12'0 0.0
2017-Sep-14 04:58N 33°45' W 118°12'0 0.1
2017-Sep-14 04:28N 33°45' W 118°12'0 0.1
2017-Sep-14 03:58N 33°45' W 118°12'0 0.1
2017-Sep-14 03:22N 33°45' W 118°12'0 0.1
2017-Sep-14 02:52N 33°45' W 118°12'0 0.0
2017-Sep-14 02:28N 33°45' W 118°12'0 0.1
2017-Sep-14 01:58N 33°45' W 118°12'0 0.1
2017-Sep-14 01:28N 33°45' W 118°12'0 0.0
2017-Sep-14 00:58N 33°45' W 118°12'0 0.0
2017-Sep-14 00:28N 33°45' W 118°12'0 0.0
2017-Sep-13 23:59N 33°45' W 118°12'0 0.1
2017-Sep-13 23:28N 33°45' W 118°12'0 0.0
2017-Sep-13 22:58N 33°45' W 118°12'0 0.1
2017-Sep-13 22:28N 33°45' W 118°12'0 0.1
2017-Sep-13 21:58N 33°45' W 118°12'0 0.4
2017-Sep-13 21:30N 33°45' W 118°12'3 5.3
2017-Sep-13 21:00N 33°42' W 118°11'3 6.5
2017-Sep-13 20:31N 33°39' W 118°11'3 6.4
2017-Sep-13 20:00N 33°36' W 118°13'5 9.7
2017-Sep-13 19:30N 33°36' W 118°19'5 9.2
2017-Sep-13 19:00N 33°36' W 118°24'510.2
2017-Sep-13 18:30N 33°37' W 118°30'510.0
2017-Sep-13 18:00N 33°37' W 118°36'5 9.8
2017-Sep-13 17:30N 33°37' W 118°42'5 9.9
2017-Sep-13 17:01N 33°38' W 118°48'610.0
2017-Sep-13 16:26N 33°38' W 118°55'4 9.9
2017-Sep-13 16:00N 33°38' W 119°00'510.1
2017-Sep-13 15:31N 33°38' W 119°06'510.3
2017-Sep-13 15:01N 33°38' W 119°12'510.5
2017-Sep-13 14:31N 33°38' W 119°19'510.6
2017-Sep-13 14:01N 33°38' W 119°25'510.7
2017-Sep-13 13:30N 33°38' W 119°32'510.7
2017-Sep-13 13:00N 33°38' W 119°38'510.5
2017-Sep-13 12:30N 33°38' W 119°44'510.4
2017-Sep-13 12:00N 33°38' W 119°50'610.7
2017-Sep-13 11:29N 33°38' W 119°57'510.9
2017-Sep-13 11:00N 33°38' W 120°03'510.9
2017-Sep-13 10:31N 33°38' W 120°10'611.0
2017-Sep-13 10:00N 33°38' W 120°17'611.4
2017-Sep-13 09:30N 33°40' W 120°23'611.2
2017-Sep-13 09:00N 33°41' W 120°30'611.1
2017-Sep-13 08:31N 33°42' W 120°36'611.3
2017-Sep-13 08:00N 33°43' W 120°43'611.4
2017-Sep-13 07:31N 33°44' W 120°50'611.1
2017-Sep-13 07:00N 33°45' W 120°56'511.0
2017-Sep-13 06:31N 33°46' W 121°03'611.3
2017-Sep-13 06:00N 33°47' W 121°09'611.2
2017-Sep-13 05:31N 33°48' W 121°16'610.9
2017-Sep-13 04:59N 33°49' W 121°23'510.8
2017-Sep-13 04:31N 33°50' W 121°29'510.8
2017-Sep-13 04:01N 33°51' W 121°35'511.0
2017-Sep-13 03:31N 33°52' W 121°42'510.8
2017-Sep-13 03:00N 33°54' W 121°48'511.0
2017-Sep-13 02:31N 33°55' W 121°54'610.7
2017-Sep-13 02:00N 33°56' W 122°01'711.0
2017-Sep-13 01:22N 33°57' W 122°09'28813.9
2017-Sep-12 04:38N 35°29' W 127°41'520.4
2017-Sep-12 04:22N 35°31' W 127°47'  

Dump ship's entire track history